createdAt,value
2019-02-20T00:01:45.608Z,16.53
2019-02-20T00:04:15.051Z,15.77
2019-02-20T00:06:44.508Z,20.77
2019-02-20T00:09:13.929Z,18.93
2019-02-20T00:11:43.505Z,20.93
2019-02-20T00:14:13.485Z,16.23
2019-02-20T00:16:44.133Z,15.57
2019-02-20T00:19:13.940Z,17.73
2019-02-20T00:21:44.056Z,21.65
2019-02-20T00:24:14.473Z,19.70
2019-02-20T00:26:44.160Z,19.20
2019-02-20T00:29:14.092Z,25.93
2019-02-20T00:31:44.172Z,18.83
2019-02-20T00:34:14.216Z,23.53
2019-02-20T00:36:44.413Z,19.97
2019-02-20T00:39:14.217Z,14.63
2019-02-20T00:41:44.549Z,14.90
2019-02-20T00:44:33.614Z,18.40
2019-02-20T00:47:28.153Z,16.10
2019-02-20T00:49:57.324Z,18.40
2019-02-20T00:52:49.397Z,19.13
2019-02-20T00:55:11.780Z,18.73
2019-02-20T00:57:40.965Z,25.20
2019-02-20T01:00:11.732Z,29.27
2019-02-20T01:02:41.220Z,28.13
2019-02-20T01:05:10.328Z,20.57
2019-02-20T01:07:39.516Z,23.87
2019-02-20T01:10:09.419Z,20.33
2019-02-20T01:12:39.017Z,23.53
2019-02-20T01:15:08.712Z,23.97
2019-02-20T01:17:37.984Z,27.73
2019-02-20T01:20:07.763Z,33.07
2019-02-20T01:22:36.981Z,29.97
2019-02-20T01:25:06.221Z,23.20
2019-02-20T01:27:35.228Z,27.87
2019-02-20T01:30:04.599Z,34.70
2019-02-20T01:32:33.755Z,30.13
2019-02-20T01:35:02.946Z,27.80
2019-02-20T01:37:32.088Z,25.67
2019-02-20T01:40:01.161Z,19.07
2019-02-20T01:42:30.228Z,30.40
2019-02-20T01:44:59.644Z,42.73
2019-02-20T01:47:28.865Z,35.13
2019-02-20T01:49:58.064Z,44.63
2019-02-20T01:52:27.156Z,38.37
2019-02-20T01:54:56.808Z,40.58
2019-02-20T01:57:26.461Z,51.40
2019-02-20T01:59:55.660Z,43.27
2019-02-20T02:02:25.693Z,44.60
2019-02-20T02:04:54.832Z,35.90
2019-02-20T02:07:23.900Z,39.10
2019-02-20T02:09:53.869Z,35.40
2019-02-20T02:12:22.996Z,40.27
2019-02-20T02:14:52.176Z,30.77
2019-02-20T02:17:21.464Z,26.23
2019-02-20T02:19:51.918Z,24.47
2019-02-20T02:22:21.322Z,22.43
2019-02-20T02:24:50.425Z,20.12
2019-02-20T02:27:19.930Z,29.70
2019-02-20T02:29:49.328Z,24.97
2019-02-20T02:32:18.716Z,17.35
2019-02-20T02:34:48.847Z,29.20
2019-02-20T02:37:19.381Z,23.90
2019-02-20T02:39:49.339Z,34.05
2019-02-20T02:42:19.235Z,35.88
2019-02-20T02:44:49.476Z,37.93
2019-02-20T02:47:20.270Z,39.50
2019-02-20T02:49:49.379Z,36.10
2019-02-20T02:52:19.444Z,28.30
2019-02-20T02:54:49.615Z,30.10
2019-02-20T02:57:19.930Z,28.10
2019-02-20T02:59:49.549Z,32.83
2019-02-20T03:02:19.665Z,30.97
2019-02-20T03:04:49.668Z,20.75
2019-02-20T03:07:21.391Z,24.15
2019-02-20T03:09:50.557Z,24.27
2019-02-20T03:12:21.588Z,26.63
2019-02-20T03:14:52.352Z,24.33
2019-02-20T03:17:21.792Z,21.43
2019-02-20T03:19:50.992Z,28.50
2019-02-20T03:22:20.560Z,31.10
2019-02-20T03:24:51.178Z,24.13
2019-02-20T03:27:20.699Z,29.90
2019-02-20T03:29:51.504Z,24.33
2019-02-20T03:32:21.186Z,27.42
2019-02-20T03:34:51.032Z,15.72
2019-02-20T03:37:21.142Z,22.83
2019-02-20T03:39:51.968Z,23.75
2019-02-20T03:42:21.305Z,21.02
2019-02-20T03:44:51.330Z,19.37
2019-02-20T03:47:21.712Z,19.53
2019-02-20T03:49:51.977Z,21.55
2019-02-20T03:52:21.703Z,23.62
2019-02-20T03:54:52.446Z,24.18
2019-02-20T03:57:21.972Z,26.68
2019-02-20T03:59:51.813Z,25.97
2019-02-20T04:02:21.989Z,22.53
2019-02-20T04:04:51.992Z,22.60
2019-02-20T04:07:22.000Z,19.90
2019-02-20T04:09:53.076Z,19.27
2019-02-20T04:12:22.299Z,26.95
2019-02-20T04:14:52.365Z,21.30
2019-02-20T04:17:21.720Z,27.22
2019-02-20T04:19:51.033Z,26.43
2019-02-20T04:22:20.164Z,19.20
2019-02-20T04:24:49.345Z,24.77
2019-02-20T04:27:19.504Z,19.20
2019-02-20T04:29:49.165Z,20.90
2019-02-20T04:32:18.378Z,19.73
2019-02-20T04:34:47.621Z,20.43
2019-02-20T04:37:16.963Z,24.13
2019-02-20T04:39:46.063Z,19.73
2019-02-20T04:42:15.541Z,21.63
2019-02-20T04:44:44.720Z,21.53
2019-02-20T04:47:13.970Z,15.87
2019-02-20T04:49:43.556Z,25.67
2019-02-20T04:52:12.848Z,26.20
2019-02-20T04:54:42.284Z,19.93
2019-02-20T04:57:11.483Z,21.87
2019-02-20T04:59:40.572Z,19.93
2019-02-20T05:02:09.598Z,25.50
2019-02-20T05:04:38.612Z,27.13
2019-02-20T05:07:07.711Z,21.60
2019-02-20T05:09:39.518Z,22.40
2019-02-20T05:12:08.819Z,23.13
2019-02-20T05:14:38.302Z,21.67
2019-02-20T05:17:07.402Z,18.50
2019-02-20T05:19:36.637Z,27.90
2019-02-20T05:22:09.098Z,16.23
2019-02-20T05:24:38.916Z,23.15
2019-02-20T05:27:08.093Z,23.80
2019-02-20T05:29:37.196Z,23.87
2019-02-20T05:32:06.353Z,17.60
2019-02-20T05:34:35.441Z,28.97
2019-02-20T05:37:05.468Z,23.10
2019-02-20T05:39:34.786Z,19.07
2019-02-20T05:42:04.313Z,20.72
2019-02-20T05:44:35.142Z,21.90
2019-02-20T05:47:04.336Z,26.77
2019-02-20T05:49:33.664Z,24.77
2019-02-20T05:52:03.066Z,22.00
2019-02-20T05:54:35.047Z,22.83
2019-02-20T05:57:03.404Z,15.97
2019-02-20T05:59:33.096Z,24.07
2019-02-20T06:02:02.127Z,21.13
2019-02-20T06:04:31.317Z,20.07
2019-02-20T06:07:00.700Z,20.80
2019-02-20T06:09:30.201Z,22.73
2019-02-20T06:11:59.617Z,22.60
2019-02-20T06:14:28.766Z,19.10
2019-02-20T06:16:58.088Z,19.77
2019-02-20T06:19:28.938Z,32.10
2019-02-20T06:21:58.244Z,26.30
2019-02-20T06:24:29.852Z,19.43
2019-02-20T06:27:00.103Z,22.27
2019-02-20T06:29:29.909Z,22.33
2019-02-20T06:31:59.032Z,26.03
2019-02-20T06:34:28.256Z,20.97
2019-02-20T06:36:57.388Z,25.13
2019-02-20T06:39:29.785Z,26.35
2019-02-20T06:41:59.389Z,21.77
2019-02-20T06:44:28.804Z,14.97
2019-02-20T06:46:58.096Z,26.33
2019-02-20T06:49:27.937Z,22.60
2019-02-20T06:51:58.156Z,27.73
2019-02-20T06:54:27.997Z,18.32
2019-02-20T06:56:58.889Z,22.80
2019-02-20T06:59:29.400Z,29.42
2019-02-20T07:01:59.377Z,26.80
2019-02-20T07:04:28.365Z,23.43
2019-02-20T07:07:21.368Z,22.10
2019-02-20T07:10:41.043Z,24.30
2019-02-20T07:13:41.940Z,23.57
2019-02-20T07:16:21.373Z,22.93
2019-02-20T07:19:17.424Z,22.27
2019-02-20T07:22:29.348Z,22.20
2019-02-20T07:25:43.473Z,26.52
2019-02-20T07:28:37.284Z,26.57
2019-02-20T07:31:06.539Z,19.83
2019-02-20T07:33:36.408Z,27.57
2019-02-20T07:36:05.716Z,25.63
2019-02-20T07:38:34.772Z,33.80
2019-02-20T07:41:05.239Z,19.70
2019-02-20T07:43:34.452Z,23.93
2019-02-20T07:46:03.849Z,19.77
2019-02-20T07:48:32.975Z,23.62
2019-02-20T07:51:02.173Z,25.20
2019-02-20T07:53:31.327Z,27.77
2019-02-20T07:56:00.323Z,26.43
2019-02-20T07:58:31.650Z,28.23
2019-02-20T08:01:01.063Z,29.80
2019-02-20T08:03:30.409Z,31.42
2019-02-20T08:06:00.392Z,31.27
2019-02-20T08:08:30.508Z,29.77
2019-02-20T08:11:01.505Z,28.10
2019-02-20T08:13:39.075Z,31.27
2019-02-20T08:16:01.581Z,27.20
2019-02-20T08:18:31.000Z,21.63
2019-02-20T08:21:01.008Z,23.80
2019-02-20T08:23:31.041Z,33.60
2019-02-20T08:26:01.423Z,35.20
2019-02-20T08:28:31.793Z,42.20
2019-02-20T08:31:01.384Z,22.62
2019-02-20T08:33:31.536Z,36.93
2019-02-20T08:36:02.562Z,36.53
2019-02-20T08:38:32.258Z,29.73
2019-02-20T08:41:01.784Z,33.70
2019-02-20T08:43:32.101Z,32.13
2019-02-20T08:46:03.020Z,28.87
2019-02-20T08:48:32.124Z,29.30
2019-02-20T08:51:01.974Z,38.20
2019-02-20T08:53:30.988Z,30.45
2019-02-20T08:56:00.055Z,38.60
2019-02-20T08:58:29.064Z,31.50
2019-02-20T09:00:58.088Z,36.30
2019-02-20T09:03:27.256Z,36.17
2019-02-20T09:05:56.383Z,35.17
2019-02-20T09:08:25.712Z,37.47
2019-02-20T09:10:54.949Z,36.20
2019-02-20T09:13:24.817Z,38.40
2019-02-20T09:15:53.997Z,38.50
2019-02-20T09:18:23.450Z,39.53
2019-02-20T09:20:52.664Z,39.13
2019-02-20T09:23:21.718Z,34.87
2019-02-20T09:25:50.914Z,34.77
2019-02-20T09:28:19.860Z,39.97
2019-02-20T09:30:49.298Z,38.83
2019-02-20T09:33:18.724Z,37.03
2019-02-20T09:35:47.797Z,34.80
2019-02-20T09:38:16.877Z,37.30
2019-02-20T09:40:46.332Z,36.03
2019-02-20T09:43:17.196Z,45.65
2019-02-20T09:45:47.361Z,55.93
2019-02-20T09:48:16.405Z,40.03
2019-02-20T09:50:47.708Z,43.60
2019-02-20T09:53:17.000Z,45.93
2019-02-20T09:55:51.611Z,49.00
2019-02-20T09:58:18.093Z,44.33
2019-02-20T10:00:47.600Z,44.40
2019-02-20T10:03:17.173Z,46.67
2019-02-20T10:05:46.540Z,57.40
2019-02-20T10:08:16.871Z,51.70
2019-02-20T10:10:46.069Z,45.63
2019-02-20T10:13:15.440Z,44.30
2019-02-20T10:15:44.638Z,58.10
2019-02-20T10:18:13.844Z,46.00
2019-02-20T10:20:42.936Z,45.97
2019-02-20T10:23:12.650Z,52.23
2019-02-20T10:25:41.892Z,46.00
2019-02-20T10:28:11.034Z,50.98
2019-02-20T10:30:40.301Z,49.07
2019-02-20T10:33:09.522Z,61.20
2019-02-20T10:35:38.610Z,46.13
2019-02-20T10:38:08.120Z,50.20
2019-02-20T10:40:37.588Z,50.27
2019-02-20T10:43:07.057Z,53.07
2019-02-20T10:45:36.302Z,59.37
2019-02-20T10:48:06.229Z,52.43
2019-02-20T10:50:36.570Z,54.17
2019-02-20T10:53:06.964Z,47.97
2019-02-20T10:55:37.029Z,50.57
2019-02-20T10:58:06.824Z,45.07
2019-02-20T11:00:37.808Z,36.33
2019-02-20T11:03:07.369Z,49.03
2019-02-20T11:05:37.063Z,37.23
2019-02-20T11:08:07.224Z,34.63
2019-02-20T11:10:37.237Z,35.70
2019-02-20T11:13:07.368Z,32.37
2019-02-20T11:15:37.480Z,33.10
2019-02-20T11:18:07.889Z,30.13
2019-02-20T11:20:38.183Z,29.57
2019-02-20T11:23:08.026Z,26.17
2019-02-20T11:25:38.216Z,28.07
2019-02-20T11:28:08.573Z,26.68
2019-02-20T11:30:37.680Z,26.93
2019-02-20T11:33:08.225Z,23.80
2019-02-20T11:35:37.794Z,19.33
2019-02-20T11:38:07.020Z,23.70
2019-02-20T11:40:36.117Z,16.93
2019-02-20T11:43:06.282Z,16.47
2019-02-20T11:45:35.831Z,18.40
2019-02-20T11:48:05.088Z,15.90
2019-02-20T11:50:34.452Z,23.23
2019-02-20T11:53:03.859Z,18.13
2019-02-20T11:55:33.016Z,16.40
2019-02-20T11:58:03.473Z,22.17
2019-02-20T12:00:33.553Z,16.47
2019-02-20T12:03:02.682Z,17.23
2019-02-20T12:05:31.982Z,16.80
2019-02-20T12:08:01.328Z,16.80
2019-02-20T12:10:30.657Z,22.23
2019-02-20T12:12:59.817Z,17.40
2019-02-20T12:15:29.166Z,19.40
2019-02-20T12:17:58.584Z,13.43
2019-02-20T12:20:28.052Z,12.98
2019-02-20T12:22:58.312Z,17.60
2019-02-20T12:25:27.559Z,14.27
2019-02-20T12:27:57.534Z,12.17
2019-02-20T12:30:26.898Z,14.33
2019-02-20T12:32:56.337Z,12.28
2019-02-20T12:35:25.447Z,17.30
2019-02-20T12:37:54.604Z,7.53
2019-02-20T12:40:24.002Z,12.73
2019-02-20T12:42:54.056Z,13.70
2019-02-20T12:45:23.566Z,9.50
2019-02-20T12:47:52.692Z,10.50
2019-02-20T12:50:21.820Z,12.30
2019-02-20T12:52:50.896Z,10.83
2019-02-20T12:55:20.051Z,14.57
2019-02-20T12:57:54.007Z,13.33
2019-02-20T13:00:23.304Z,16.60
2019-02-20T13:02:52.859Z,12.45
2019-02-20T13:05:22.623Z,13.20
2019-02-20T13:07:52.176Z,13.00
2019-02-20T13:10:21.322Z,12.50
2019-02-20T13:12:50.672Z,11.43
2019-02-20T13:15:19.904Z,8.80
2019-02-20T13:17:49.570Z,14.07
2019-02-20T13:20:18.939Z,10.37
2019-02-20T13:22:48.073Z,11.63
2019-02-20T13:25:17.471Z,11.23
2019-02-20T13:27:46.604Z,20.13
2019-02-20T13:30:15.902Z,13.70
2019-02-20T13:32:44.952Z,14.83
2019-02-20T13:35:14.817Z,12.27
2019-02-20T13:37:45.996Z,15.20
2019-02-20T13:40:15.488Z,16.57
2019-02-20T13:42:45.359Z,13.45
2019-02-20T13:45:15.053Z,12.10
2019-02-20T13:47:45.507Z,18.00
2019-02-20T13:50:15.192Z,11.57
2019-02-20T13:52:52.023Z,18.73
2019-02-20T13:55:16.532Z,19.63
2019-02-20T13:57:45.700Z,17.33
2019-02-20T14:00:15.814Z,12.83
2019-02-20T14:02:46.114Z,15.13
2019-02-20T14:05:16.044Z,15.70
2019-02-20T14:07:46.265Z,21.03
2019-02-20T14:10:15.993Z,21.45
2019-02-20T14:12:46.284Z,16.90
2019-02-20T14:15:17.535Z,19.45
2019-02-20T14:17:46.756Z,20.90
2019-02-20T14:20:16.572Z,25.52
2019-02-20T14:22:47.583Z,17.50
2019-02-20T14:25:17.217Z,12.27
2019-02-20T14:27:46.740Z,16.50
2019-02-20T14:30:16.677Z,13.27
2019-02-20T14:32:46.704Z,18.73
2019-02-20T14:35:16.708Z,12.40
2019-02-20T14:37:45.733Z,12.93
2019-02-20T14:40:15.062Z,15.20
2019-02-20T14:42:44.360Z,12.17
2019-02-20T14:45:13.990Z,12.60
2019-02-20T14:47:43.598Z,15.13
2019-02-20T14:50:13.404Z,14.60
2019-02-20T14:52:42.516Z,14.83
2019-02-20T14:55:11.653Z,17.63
2019-02-20T14:57:40.732Z,10.97
2019-02-20T15:00:10.760Z,17.37
2019-02-20T15:02:41.960Z,14.63
2019-02-20T15:05:12.035Z,14.00
2019-02-20T15:07:42.376Z,17.17
2019-02-20T15:10:11.596Z,13.27
2019-02-20T15:12:40.712Z,10.93
2019-02-20T15:15:11.070Z,12.93
2019-02-20T15:17:40.237Z,18.17
2019-02-20T15:20:11.093Z,12.80
2019-02-20T15:22:40.540Z,13.70
2019-02-20T15:25:09.703Z,12.87
2019-02-20T15:27:38.840Z,15.30
2019-02-20T15:30:09.781Z,19.10
2019-02-20T15:32:38.876Z,16.20
2019-02-20T15:35:08.096Z,11.80
2019-02-20T15:37:37.831Z,15.53
2019-02-20T15:40:07.430Z,19.57
2019-02-20T15:42:36.638Z,14.03
2019-02-20T15:45:06.702Z,19.90
2019-02-20T15:47:35.796Z,16.60
2019-02-20T15:50:05.741Z,18.97
2019-02-20T15:52:35.228Z,18.43
2019-02-20T15:55:04.555Z,20.17
2019-02-20T15:57:38.192Z,19.57
2019-02-20T16:00:06.416Z,17.30
2019-02-20T16:02:35.549Z,12.90
2019-02-20T16:05:05.229Z,21.60
2019-02-20T16:07:34.821Z,19.87
2019-02-20T16:10:05.745Z,18.62
2019-02-20T16:12:34.799Z,15.33
2019-02-20T16:15:03.968Z,18.37
2019-02-20T16:17:34.184Z,17.00
2019-02-20T16:20:03.676Z,16.13
2019-02-20T16:22:33.288Z,20.47
2019-02-20T16:25:02.388Z,26.13
2019-02-20T16:27:31.604Z,18.50
2019-02-20T16:30:00.973Z,19.50
2019-02-20T16:32:30.394Z,19.67
2019-02-20T16:34:59.628Z,19.17
2019-02-20T16:37:29.521Z,22.85
2019-02-20T16:39:58.656Z,16.57
2019-02-20T16:42:28.095Z,13.57
2019-02-20T16:44:57.631Z,15.97
2019-02-20T16:47:27.090Z,16.90
2019-02-20T16:49:56.293Z,17.70
2019-02-20T16:52:25.300Z,15.90
2019-02-20T16:54:55.110Z,21.27
2019-02-20T16:57:24.864Z,16.87
2019-02-20T16:59:54.320Z,18.17
2019-02-20T17:02:23.512Z,19.70
2019-02-20T17:04:59.372Z,17.93
2019-02-20T17:07:23.808Z,21.20
2019-02-20T17:09:53.478Z,21.97
2019-02-20T17:12:23.285Z,23.18
2019-02-20T17:14:54.198Z,16.97
2019-02-20T17:17:23.742Z,16.87
2019-02-20T17:19:53.873Z,26.82
2019-02-20T17:22:23.870Z,18.37
2019-02-20T17:24:53.407Z,22.80
2019-02-20T17:27:23.894Z,23.87
2019-02-20T17:29:53.749Z,21.95
2019-02-20T17:32:25.002Z,27.73
2019-02-20T17:34:54.440Z,19.97
2019-02-20T17:37:23.953Z,23.90
2019-02-20T17:39:54.321Z,19.83
2019-02-20T17:42:24.237Z,20.68
2019-02-20T17:44:54.838Z,22.17
2019-02-20T17:47:24.861Z,21.37
2019-02-20T17:49:54.225Z,18.77
2019-02-20T17:52:24.700Z,23.25
2019-02-20T17:54:54.872Z,21.33
2019-02-20T17:57:24.954Z,21.12
2019-02-20T17:59:54.666Z,25.25
2019-02-20T18:02:24.608Z,21.87
2019-02-20T18:04:55.188Z,26.75
2019-02-20T18:07:25.021Z,21.65
2019-02-20T18:09:54.995Z,28.77
2019-02-20T18:12:25.101Z,19.53
2019-02-20T18:14:55.091Z,24.67
2019-02-20T18:17:25.586Z,31.12
2019-02-20T18:19:56.552Z,18.40
2019-02-20T18:22:25.597Z,21.03
2019-02-20T18:24:55.432Z,19.85
2019-02-20T18:27:25.968Z,24.70
2019-02-20T18:29:55.763Z,23.55
2019-02-20T18:32:25.841Z,19.67
2019-02-20T18:34:55.236Z,21.23
2019-02-20T18:37:24.384Z,26.93
2019-02-20T18:39:53.847Z,21.67
2019-02-20T18:42:24.467Z,31.73
2019-02-20T18:44:55.720Z,33.57
2019-02-20T18:47:25.099Z,31.60
2019-02-20T18:49:54.304Z,46.03
2019-02-20T18:52:24.356Z,39.50
2019-02-20T18:54:53.905Z,36.87
2019-02-20T18:57:23.417Z,59.70
2019-02-20T18:59:52.655Z,38.93
2019-02-20T19:02:22.030Z,46.23
2019-02-20T19:04:51.744Z,28.33
2019-02-20T19:07:20.814Z,31.63
2019-02-20T19:09:50.891Z,21.83
2019-02-20T19:12:46.737Z,30.03
2019-02-20T19:15:29.484Z,26.43
2019-02-20T19:18:28.391Z,28.70
2019-02-20T19:21:07.348Z,26.93
2019-02-20T19:24:15.029Z,26.35
2019-02-20T19:27:34.287Z,32.00
2019-02-20T19:30:39.960Z,32.20
2019-02-20T19:33:22.666Z,44.27
2019-02-20T19:36:28.828Z,32.73
2019-02-20T19:39:18.166Z,29.63
2019-02-20T19:42:25.869Z,25.90
2019-02-20T19:45:31.081Z,24.97
2019-02-20T19:48:53.541Z,28.67
2019-02-20T19:51:37.359Z,31.37
2019-02-20T19:54:29.152Z,36.00
2019-02-20T19:57:45.836Z,32.67
2019-02-20T20:00:39.120Z,38.53
2019-02-20T20:03:52.576Z,38.07
2019-02-20T20:07:10.495Z,36.87
2019-02-20T20:10:12.579Z,31.17
2019-02-20T20:13:32.140Z,42.17
2019-02-20T20:16:57.536Z,37.33
2019-02-20T20:19:59.469Z,41.67
2019-02-20T20:23:06.534Z,28.83
2019-02-20T20:26:07.044Z,33.27
2019-02-20T20:29:05.501Z,32.20
2019-02-20T20:31:35.293Z,29.23
2019-02-20T20:34:20.290Z,35.33
2019-02-20T20:37:05.093Z,29.03
2019-02-20T20:40:27.840Z,28.87
2019-02-20T20:43:24.000Z,26.57
2019-02-20T20:46:27.148Z,26.47
2019-02-20T20:49:22.881Z,29.53
2019-02-20T20:52:37.773Z,27.73
2019-02-20T20:55:48.058Z,26.00
2019-02-20T20:59:02.915Z,23.13
2019-02-20T21:02:08.663Z,20.47
2019-02-20T21:05:23.283Z,19.67
2019-02-20T21:08:48.509Z,20.57
2019-02-20T21:12:07.024Z,24.37
2019-02-20T21:14:51.120Z,26.13
2019-02-20T21:17:53.165Z,24.02
2019-02-20T21:20:33.007Z,23.23
2019-02-20T21:23:44.920Z,23.27
2019-02-20T21:26:56.310Z,23.87
2019-02-20T21:30:06.448Z,25.87
2019-02-20T21:33:14.112Z,25.30
2019-02-20T21:36:02.230Z,26.13
2019-02-20T21:39:23.482Z,23.42
2019-02-20T21:42:33.906Z,25.57
2019-02-20T21:45:35.888Z,30.27
2019-02-20T21:48:23.405Z,32.53
2019-02-20T21:51:11.364Z,35.23
2019-02-20T21:54:18.573Z,34.37
2019-02-20T21:57:18.658Z,32.37
2019-02-20T22:00:11.831Z,33.80
2019-02-20T22:03:28.239Z,30.57
2019-02-20T22:06:26.665Z,27.13
2019-02-20T22:09:36.649Z,27.93
2019-02-20T22:12:50.867Z,32.43
2019-02-20T22:15:38.813Z,33.07
2019-02-20T22:18:51.023Z,31.30
2019-02-20T22:22:08.389Z,31.10
2019-02-20T22:25:14.468Z,28.90
2019-02-20T22:28:27.038Z,28.90
2019-02-20T22:31:09.384Z,31.60
2019-02-20T22:33:49.457Z,34.47
2019-02-20T22:36:57.473Z,35.57
2019-02-20T22:40:08.514Z,32.83
2019-02-20T22:43:18.687Z,28.73
2019-02-20T22:45:59.663Z,37.30
2019-02-20T22:49:03.739Z,29.40
2019-02-20T22:51:55.383Z,35.93
2019-02-20T22:55:10.832Z,37.70
2019-02-20T22:58:11.268Z,36.67
2019-02-20T23:01:22.491Z,44.07
2019-02-20T23:04:25.983Z,32.17
2019-02-20T23:07:51.752Z,30.67
2019-02-20T23:11:14.088Z,33.30
2019-02-20T23:14:27.488Z,37.50
2019-02-20T23:16:56.984Z,34.23
2019-02-20T23:19:26.450Z,34.13
2019-02-20T23:21:55.812Z,34.73
2019-02-20T23:24:25.312Z,35.57
2019-02-20T23:26:55.048Z,37.70
2019-02-20T23:29:25.393Z,34.00
2019-02-20T23:31:54.698Z,31.60
2019-02-20T23:34:23.858Z,31.90
2019-02-20T23:36:53.279Z,26.60
2019-02-20T23:39:22.636Z,36.20
2019-02-20T23:41:51.718Z,27.30
2019-02-20T23:44:21.165Z,32.13
2019-02-20T23:46:50.256Z,36.47
2019-02-20T23:49:19.428Z,32.77
2019-02-20T23:51:48.492Z,28.93
2019-02-20T23:54:17.607Z,30.63
2019-02-20T23:56:46.853Z,28.47
2019-02-20T23:59:16.624Z,27.50
